sensor_id;sensor_type;location;lat;lon;timestamp;P1;durP1;ratioP1;P2;durP2;ratioP2
57730;SDS011;43570;47.476;19.040;2022-12-20T00:01:15;69.65;;;45.95;;
57730;SDS011;43570;47.476;19.040;2022-12-20T00:03:42;68.55;;;45.78;;
57730;SDS011;43570;47.476;19.040;2022-12-20T00:06:08;66.87;;;44.78;;
57730;SDS011;43570;47.476;19.040;2022-12-20T00:08:35;62.60;;;43.17;;
57730;SDS011;43570;47.476;19.040;2022-12-20T00:11:01;63.92;;;45.17;;
57730;SDS011;43570;47.476;19.040;2022-12-20T00:13:29;64.12;;;44.65;;
57730;SDS011;43570;47.476;19.040;2022-12-20T00:18:30;62.10;;;43.58;;
57730;SDS011;43570;47.476;19.040;2022-12-20T00:20:59;61.15;;;42.45;;
57730;SDS011;43570;47.476;19.040;2022-12-20T00:23:25;63.47;;;43.67;;
57730;SDS011;43570;47.476;19.040;2022-12-20T00:25:50;63.45;;;44.67;;
57730;SDS011;43570;47.476;19.040;2022-12-20T00:28:16;62.88;;;43.08;;
57730;SDS011;43570;47.476;19.040;2022-12-20T00:30:41;63.92;;;44.08;;
57730;SDS011;43570;47.476;19.040;2022-12-20T00:33:06;61.60;;;41.97;;
57730;SDS011;43570;47.476;19.040;2022-12-20T00:35:32;61.95;;;43.03;;
57730;SDS011;43570;47.476;19.040;2022-12-20T00:37:57;60.15;;;42.62;;
57730;SDS011;43570;47.476;19.040;2022-12-20T00:40:22;62.92;;;44.13;;
57730;SDS011;43570;47.476;19.040;2022-12-20T00:42:48;59.53;;;41.00;;
57730;SDS011;43570;47.476;19.040;2022-12-20T00:45:13;59.90;;;40.60;;
57730;SDS011;43570;47.476;19.040;2022-12-20T00:47:39;59.88;;;42.85;;
57730;SDS011;43570;47.476;19.040;2022-12-20T00:50:04;57.95;;;41.00;;
57730;SDS011;43570;47.476;19.040;2022-12-20T00:52:30;59.47;;;41.22;;
57730;SDS011;43570;47.476;19.040;2022-12-20T00:54:55;58.90;;;41.00;;
57730;SDS011;43570;47.476;19.040;2022-12-20T00:57:21;63.70;;;41.85;;
57730;SDS011;43570;47.476;19.040;2022-12-20T00:59:46;60.17;;;42.03;;
57730;SDS011;43570;47.476;19.040;2022-12-20T01:02:11;59.20;;;41.45;;
57730;SDS011;43570;47.476;19.040;2022-12-20T01:04:37;56.15;;;39.20;;
57730;SDS011;43570;47.476;19.040;2022-12-20T01:07:02;56.78;;;40.35;;
57730;SDS011;43570;47.476;19.040;2022-12-20T01:09:28;56.45;;;39.80;;
57730;SDS011;43570;47.476;19.040;2022-12-20T01:11:53;53.42;;;38.17;;
57730;SDS011;43570;47.476;19.040;2022-12-20T01:14:18;56.83;;;40.25;;
57730;SDS011;43570;47.476;19.040;2022-12-20T01:16:45;57.85;;;40.17;;
57730;SDS011;43570;47.476;19.040;2022-12-20T01:19:12;57.90;;;40.78;;
57730;SDS011;43570;47.476;19.040;2022-12-20T01:21:38;61.08;;;40.42;;
57730;SDS011;43570;47.476;19.040;2022-12-20T01:24:08;56.55;;;39.25;;
57730;SDS011;43570;47.476;19.040;2022-12-20T01:26:36;57.45;;;39.33;;
57730;SDS011;43570;47.476;19.040;2022-12-20T01:29:02;55.88;;;39.15;;
57730;SDS011;43570;47.476;19.040;2022-12-20T01:31:28;55.80;;;41.33;;
57730;SDS011;43570;47.476;19.040;2022-12-20T01:33:54;56.40;;;39.58;;
57730;SDS011;43570;47.476;19.040;2022-12-20T01:36:21;60.20;;;40.78;;
57730;SDS011;43570;47.476;19.040;2022-12-20T01:38:58;58.92;;;41.50;;
57730;SDS011;43570;47.476;19.040;2022-12-20T01:41:25;56.70;;;40.78;;
57730;SDS011;43570;47.476;19.040;2022-12-20T01:46:32;56.95;;;40.50;;
57730;SDS011;43570;47.476;19.040;2022-12-20T01:49:09;60.65;;;41.75;;
57730;SDS011;43570;47.476;19.040;2022-12-20T01:51:39;55.40;;;39.95;;
57730;SDS011;43570;47.476;19.040;2022-12-20T01:54:09;60.15;;;41.35;;
57730;SDS011;43570;47.476;19.040;2022-12-20T01:56:38;58.80;;;41.20;;
57730;SDS011;43570;47.476;19.040;2022-12-20T01:59:04;59.10;;;41.15;;
57730;SDS011;43570;47.476;19.040;2022-12-20T02:01:30;60.88;;;41.37;;
57730;SDS011;43570;47.476;19.040;2022-12-20T02:03:55;59.45;;;41.65;;
57730;SDS011;43570;47.476;19.040;2022-12-20T02:06:22;62.80;;;42.83;;
57730;SDS011;43570;47.476;19.040;2022-12-20T02:08:48;56.00;;;40.97;;
57730;SDS011;43570;47.476;19.040;2022-12-20T02:16:54;61.60;;;42.67;;
57730;SDS011;43570;47.476;19.040;2022-12-20T02:30:31;56.92;;;39.92;;
57730;SDS011;43570;47.476;19.040;2022-12-20T02:32:59;60.63;;;41.37;;
57730;SDS011;43570;47.476;19.040;2022-12-20T02:35:28;59.85;;;42.88;;
57730;SDS011;43570;47.476;19.040;2022-12-20T02:38:03;60.17;;;42.17;;
57730;SDS011;43570;47.476;19.040;2022-12-20T02:40:47;61.03;;;42.13;;
57730;SDS011;43570;47.476;19.040;2022-12-20T02:43:14;58.45;;;40.25;;
57730;SDS011;43570;47.476;19.040;2022-12-20T02:45:58;59.38;;;41.47;;
57730;SDS011;43570;47.476;19.040;2022-12-20T02:48:24;62.55;;;42.75;;
57730;SDS011;43570;47.476;19.040;2022-12-20T02:50:52;57.20;;;40.38;;
57730;SDS011;43570;47.476;19.040;2022-12-20T02:53:18;56.80;;;40.05;;
57730;SDS011;43570;47.476;19.040;2022-12-20T02:55:45;56.45;;;39.80;;
57730;SDS011;43570;47.476;19.040;2022-12-20T02:58:35;60.10;;;41.55;;
57730;SDS011;43570;47.476;19.040;2022-12-20T03:00:59;55.88;;;38.42;;
57730;SDS011;43570;47.476;19.040;2022-12-20T03:03:30;58.47;;;42.10;;
57730;SDS011;43570;47.476;19.040;2022-12-20T03:05:56;58.63;;;40.53;;
57730;SDS011;43570;47.476;19.040;2022-12-20T03:08:22;61.20;;;42.35;;
57730;SDS011;43570;47.476;19.040;2022-12-20T03:10:48;58.25;;;40.33;;
57730;SDS011;43570;47.476;19.040;2022-12-20T03:13:14;55.63;;;40.58;;
57730;SDS011;43570;47.476;19.040;2022-12-20T03:15:40;54.92;;;40.12;;
57730;SDS011;43570;47.476;19.040;2022-12-20T03:18:05;59.08;;;40.67;;
57730;SDS011;43570;47.476;19.040;2022-12-20T03:20:31;55.42;;;39.58;;
57730;SDS011;43570;47.476;19.040;2022-12-20T03:22:56;58.40;;;39.28;;
57730;SDS011;43570;47.476;19.040;2022-12-20T03:25:22;56.83;;;39.47;;
57730;SDS011;43570;47.476;19.040;2022-12-20T03:27:47;62.50;;;41.75;;
57730;SDS011;43570;47.476;19.040;2022-12-20T03:30:13;57.53;;;39.25;;
57730;SDS011;43570;47.476;19.040;2022-12-20T03:32:38;56.80;;;39.60;;
57730;SDS011;43570;47.476;19.040;2022-12-20T03:35:04;53.87;;;39.10;;
57730;SDS011;43570;47.476;19.040;2022-12-20T03:37:30;55.08;;;39.72;;
57730;SDS011;43570;47.476;19.040;2022-12-20T03:39:55;58.63;;;40.28;;
57730;SDS011;43570;47.476;19.040;2022-12-20T03:42:20;56.80;;;40.35;;
57730;SDS011;43570;47.476;19.040;2022-12-20T03:44:46;58.22;;;40.92;;
57730;SDS011;43570;47.476;19.040;2022-12-20T03:47:11;55.10;;;40.15;;
57730;SDS011;43570;47.476;19.040;2022-12-20T03:49:36;55.08;;;39.28;;
57730;SDS011;43570;47.476;19.040;2022-12-20T03:52:02;55.70;;;39.47;;
57730;SDS011;43570;47.476;19.040;2022-12-20T03:54:27;53.42;;;38.45;;
57730;SDS011;43570;47.476;19.040;2022-12-20T03:56:52;56.25;;;39.17;;
57730;SDS011;43570;47.476;19.040;2022-12-20T03:59:18;53.28;;;37.83;;
57730;SDS011;43570;47.476;19.040;2022-12-20T04:01:43;54.63;;;38.78;;
57730;SDS011;43570;47.476;19.040;2022-12-20T04:04:09;53.05;;;37.65;;
57730;SDS011;43570;47.476;19.040;2022-12-20T04:06:35;49.53;;;36.63;;
57730;SDS011;43570;47.476;19.040;2022-12-20T04:09:00;52.33;;;37.33;;
57730;SDS011;43570;47.476;19.040;2022-12-20T04:11:26;54.22;;;38.55;;
57730;SDS011;43570;47.476;19.040;2022-12-20T04:13:52;53.08;;;38.15;;
57730;SDS011;43570;47.476;19.040;2022-12-20T04:16:19;51.40;;;37.83;;
57730;SDS011;43570;47.476;19.040;2022-12-20T04:18:46;53.67;;;37.50;;
57730;SDS011;43570;47.476;19.040;2022-12-20T04:21:11;54.58;;;37.80;;
57730;SDS011;43570;47.476;19.040;2022-12-20T04:23:38;53.65;;;39.25;;
57730;SDS011;43570;47.476;19.040;2022-12-20T04:26:05;54.88;;;37.65;;
57730;SDS011;43570;47.476;19.040;2022-12-20T04:28:31;53.05;;;37.50;;
57730;SDS011;43570;47.476;19.040;2022-12-20T04:30:57;55.45;;;38.47;;
57730;SDS011;43570;47.476;19.040;2022-12-20T04:33:23;56.95;;;40.30;;
57730;SDS011;43570;47.476;19.040;2022-12-20T04:35:49;57.78;;;39.55;;
57730;SDS011;43570;47.476;19.040;2022-12-20T04:38:15;58.33;;;40.03;;
57730;SDS011;43570;47.476;19.040;2022-12-20T04:40:41;56.85;;;39.63;;
57730;SDS011;43570;47.476;19.040;2022-12-20T04:43:06;58.38;;;39.30;;
57730;SDS011;43570;47.476;19.040;2022-12-20T04:45:32;55.45;;;38.47;;
57730;SDS011;43570;47.476;19.040;2022-12-20T04:47:58;56.00;;;39.00;;
57730;SDS011;43570;47.476;19.040;2022-12-20T04:50:24;55.75;;;39.10;;
57730;SDS011;43570;47.476;19.040;2022-12-20T04:52:49;49.92;;;35.65;;
57730;SDS011;43570;47.476;19.040;2022-12-20T04:55:37;51.37;;;38.08;;
57730;SDS011;43570;47.476;19.040;2022-12-20T04:58:03;50.00;;;36.10;;
57730;SDS011;43570;47.476;19.040;2022-12-20T05:00:28;52.38;;;37.58;;
57730;SDS011;43570;47.476;19.040;2022-12-20T05:02:54;55.08;;;37.78;;
57730;SDS011;43570;47.476;19.040;2022-12-20T05:05:19;52.65;;;37.03;;
57730;SDS011;43570;47.476;19.040;2022-12-20T05:07:45;52.40;;;37.22;;
57730;SDS011;43570;47.476;19.040;2022-12-20T05:10:10;48.33;;;34.58;;
57730;SDS011;43570;47.476;19.040;2022-12-20T05:12:36;50.12;;;35.85;;
57730;SDS011;43570;47.476;19.040;2022-12-20T05:15:01;51.22;;;35.38;;
57730;SDS011;43570;47.476;19.040;2022-12-20T05:17:26;53.85;;;37.42;;
57730;SDS011;43570;47.476;19.040;2022-12-20T05:19:52;47.78;;;36.70;;
57730;SDS011;43570;47.476;19.040;2022-12-20T05:22:17;53.78;;;36.53;;
57730;SDS011;43570;47.476;19.040;2022-12-20T05:25:01;52.20;;;36.03;;
57730;SDS011;43570;47.476;19.040;2022-12-20T05:27:45;50.38;;;36.55;;
57730;SDS011;43570;47.476;19.040;2022-12-20T05:30:11;48.95;;;35.10;;
57730;SDS011;43570;47.476;19.040;2022-12-20T05:32:36;50.10;;;35.80;;
57730;SDS011;43570;47.476;19.040;2022-12-20T05:35:01;50.53;;;35.00;;
57730;SDS011;43570;47.476;19.040;2022-12-20T05:37:27;46.03;;;33.95;;
57730;SDS011;43570;47.476;19.040;2022-12-20T05:39:52;49.45;;;34.67;;
57730;SDS011;43570;47.476;19.040;2022-12-20T05:42:18;50.38;;;35.10;;
57730;SDS011;43570;47.476;19.040;2022-12-20T05:44:43;46.17;;;33.85;;
57730;SDS011;43570;47.476;19.040;2022-12-20T05:47:08;48.10;;;34.30;;
57730;SDS011;43570;47.476;19.040;2022-12-20T05:49:34;46.67;;;33.85;;
57730;SDS011;43570;47.476;19.040;2022-12-20T05:52:00;46.20;;;33.10;;
57730;SDS011;43570;47.476;19.040;2022-12-20T05:54:26;48.67;;;34.75;;
57730;SDS011;43570;47.476;19.040;2022-12-20T05:56:51;45.78;;;32.33;;
57730;SDS011;43570;47.476;19.040;2022-12-20T05:59:17;45.53;;;34.20;;
57730;SDS011;43570;47.476;19.040;2022-12-20T06:01:42;45.85;;;34.47;;
57730;SDS011;43570;47.476;19.040;2022-12-20T06:04:08;46.72;;;33.28;;
57730;SDS011;43570;47.476;19.040;2022-12-20T06:06:33;46.08;;;33.42;;
57730;SDS011;43570;47.476;19.040;2022-12-20T06:08:58;44.72;;;32.78;;
57730;SDS011;43570;47.476;19.040;2022-12-20T06:11:24;44.78;;;32.60;;
57730;SDS011;43570;47.476;19.040;2022-12-20T06:13:49;44.53;;;31.60;;
57730;SDS011;43570;47.476;19.040;2022-12-20T06:16:15;44.80;;;34.03;;
57730;SDS011;43570;47.476;19.040;2022-12-20T06:18:40;51.05;;;35.20;;
57730;SDS011;43570;47.476;19.040;2022-12-20T06:21:06;44.65;;;33.45;;
57730;SDS011;43570;47.476;19.040;2022-12-20T06:23:31;45.92;;;32.95;;
57730;SDS011;43570;47.476;19.040;2022-12-20T06:25:58;45.40;;;34.70;;
57730;SDS011;43570;47.476;19.040;2022-12-20T06:28:23;49.03;;;33.55;;
57730;SDS011;43570;47.476;19.040;2022-12-20T06:30:52;47.35;;;33.28;;
57730;SDS011;43570;47.476;19.040;2022-12-20T06:33:18;46.15;;;32.72;;
57730;SDS011;43570;47.476;19.040;2022-12-20T06:35:43;47.03;;;33.05;;
57730;SDS011;43570;47.476;19.040;2022-12-20T06:38:08;44.65;;;32.30;;
57730;SDS011;43570;47.476;19.040;2022-12-20T06:40:34;46.00;;;33.53;;
57730;SDS011;43570;47.476;19.040;2022-12-20T06:42:59;47.13;;;34.50;;
57730;SDS011;43570;47.476;19.040;2022-12-20T06:45:25;46.55;;;33.40;;
57730;SDS011;43570;47.476;19.040;2022-12-20T06:47:50;41.85;;;31.75;;
57730;SDS011;43570;47.476;19.040;2022-12-20T06:50:15;48.45;;;33.33;;
57730;SDS011;43570;47.476;19.040;2022-12-20T06:52:41;45.60;;;32.20;;
57730;SDS011;43570;47.476;19.040;2022-12-20T06:55:06;47.30;;;32.53;;
57730;SDS011;43570;47.476;19.040;2022-12-20T06:57:32;46.00;;;32.28;;
57730;SDS011;43570;47.476;19.040;2022-12-20T06:59:57;47.13;;;32.58;;
57730;SDS011;43570;47.476;19.040;2022-12-20T07:02:23;46.05;;;32.15;;
57730;SDS011;43570;47.476;19.040;2022-12-20T07:04:48;46.53;;;33.88;;
57730;SDS011;43570;47.476;19.040;2022-12-20T07:07:14;45.10;;;32.42;;
57730;SDS011;43570;47.476;19.040;2022-12-20T07:09:41;46.92;;;31.30;;
57730;SDS011;43570;47.476;19.040;2022-12-20T07:12:07;46.25;;;33.70;;
57730;SDS011;43570;47.476;19.040;2022-12-20T07:14:33;43.10;;;31.58;;
57730;SDS011;43570;47.476;19.040;2022-12-20T07:16:58;43.03;;;32.92;;
57730;SDS011;43570;47.476;19.040;2022-12-20T07:19:24;45.22;;;34.10;;
57730;SDS011;43570;47.476;19.040;2022-12-20T07:21:49;47.08;;;33.22;;
57730;SDS011;43570;47.476;19.040;2022-12-20T07:24:15;46.30;;;33.45;;
57730;SDS011;43570;47.476;19.040;2022-12-20T07:26:40;45.25;;;32.47;;
57730;SDS011;43570;47.476;19.040;2022-12-20T07:29:05;41.75;;;31.25;;
57730;SDS011;43570;47.476;19.040;2022-12-20T07:31:31;42.10;;;31.45;;
57730;SDS011;43570;47.476;19.040;2022-12-20T07:33:56;44.10;;;32.00;;
57730;SDS011;43570;47.476;19.040;2022-12-20T07:36:22;42.47;;;30.75;;
57730;SDS011;43570;47.476;19.040;2022-12-20T07:38:47;41.05;;;30.85;;
57730;SDS011;43570;47.476;19.040;2022-12-20T07:41:14;42.00;;;32.53;;
57730;SDS011;43570;47.476;19.040;2022-12-20T07:43:41;42.17;;;31.15;;
57730;SDS011;43570;47.476;19.040;2022-12-20T07:46:07;43.08;;;31.10;;
57730;SDS011;43570;47.476;19.040;2022-12-20T07:48:32;41.15;;;30.62;;
57730;SDS011;43570;47.476;19.040;2022-12-20T07:51:00;39.70;;;29.85;;
57730;SDS011;43570;47.476;19.040;2022-12-20T07:53:28;39.28;;;28.77;;
57730;SDS011;43570;47.476;19.040;2022-12-20T07:55:56;40.90;;;29.73;;
57730;SDS011;43570;47.476;19.040;2022-12-20T07:58:22;43.53;;;29.58;;
57730;SDS011;43570;47.476;19.040;2022-12-20T08:00:47;38.25;;;28.70;;
57730;SDS011;43570;47.476;19.040;2022-12-20T08:03:20;35.92;;;28.27;;
57730;SDS011;43570;47.476;19.040;2022-12-20T08:05:52;40.40;;;28.75;;
57730;SDS011;43570;47.476;19.040;2022-12-20T08:08:19;37.17;;;27.90;;
57730;SDS011;43570;47.476;19.040;2022-12-20T08:10:44;39.10;;;28.08;;
57730;SDS011;43570;47.476;19.040;2022-12-20T08:13:10;39.47;;;28.38;;
57730;SDS011;43570;47.476;19.040;2022-12-20T08:15:36;37.35;;;28.40;;
57730;SDS011;43570;47.476;19.040;2022-12-20T08:18:01;41.17;;;29.25;;
57730;SDS011;43570;47.476;19.040;2022-12-20T08:20:27;35.63;;;27.98;;
57730;SDS011;43570;47.476;19.040;2022-12-20T08:22:52;37.20;;;27.92;;
57730;SDS011;43570;47.476;19.040;2022-12-20T08:25:18;37.50;;;27.95;;
57730;SDS011;43570;47.476;19.040;2022-12-20T08:27:45;36.70;;;27.13;;
57730;SDS011;43570;47.476;19.040;2022-12-20T08:30:11;36.38;;;27.33;;
57730;SDS011;43570;47.476;19.040;2022-12-20T08:32:36;39.47;;;28.62;;
57730;SDS011;43570;47.476;19.040;2022-12-20T08:35:02;37.58;;;28.05;;
57730;SDS011;43570;47.476;19.040;2022-12-20T08:37:28;35.58;;;26.87;;
57730;SDS011;43570;47.476;19.040;2022-12-20T08:39:54;34.28;;;25.20;;
57730;SDS011;43570;47.476;19.040;2022-12-20T08:42:19;29.75;;;23.27;;
57730;SDS011;43570;47.476;19.040;2022-12-20T08:44:45;33.67;;;24.60;;
57730;SDS011;43570;47.476;19.040;2022-12-20T08:47:10;31.40;;;23.98;;
57730;SDS011;43570;47.476;19.040;2022-12-20T08:49:36;30.42;;;23.27;;
57730;SDS011;43570;47.476;19.040;2022-12-20T08:52:01;32.42;;;24.15;;
57730;SDS011;43570;47.476;19.040;2022-12-20T08:54:27;32.47;;;23.98;;
57730;SDS011;43570;47.476;19.040;2022-12-20T08:56:52;28.87;;;22.48;;
57730;SDS011;43570;47.476;19.040;2022-12-20T08:59:18;31.67;;;23.52;;
57730;SDS011;43570;47.476;19.040;2022-12-20T09:01:43;31.12;;;23.85;;
57730;SDS011;43570;47.476;19.040;2022-12-20T09:04:09;31.65;;;22.90;;
57730;SDS011;43570;47.476;19.040;2022-12-20T09:06:35;30.90;;;23.42;;
57730;SDS011;43570;47.476;19.040;2022-12-20T09:09:01;32.45;;;23.90;;
57730;SDS011;43570;47.476;19.040;2022-12-20T09:11:26;31.37;;;22.62;;
57730;SDS011;43570;47.476;19.040;2022-12-20T09:13:53;32.15;;;23.65;;
57730;SDS011;43570;47.476;19.040;2022-12-20T09:16:25;30.00;;;23.45;;
57730;SDS011;43570;47.476;19.040;2022-12-20T09:18:51;30.40;;;22.70;;
57730;SDS011;43570;47.476;19.040;2022-12-20T09:21:18;29.40;;;23.23;;
57730;SDS011;43570;47.476;19.040;2022-12-20T09:23:44;30.35;;;22.92;;
57730;SDS011;43570;47.476;19.040;2022-12-20T09:26:11;30.92;;;24.58;;
57730;SDS011;43570;47.476;19.040;2022-12-20T09:28:39;29.40;;;23.30;;
57730;SDS011;43570;47.476;19.040;2022-12-20T09:31:05;29.30;;;22.87;;
57730;SDS011;43570;47.476;19.040;2022-12-20T09:33:33;29.60;;;22.65;;
57730;SDS011;43570;47.476;19.040;2022-12-20T09:35:59;30.35;;;22.98;;
57730;SDS011;43570;47.476;19.040;2022-12-20T09:38:25;30.42;;;23.27;;
57730;SDS011;43570;47.476;19.040;2022-12-20T09:40:53;30.98;;;23.20;;
57730;SDS011;43570;47.476;19.040;2022-12-20T09:43:21;28.05;;;22.48;;
57730;SDS011;43570;47.476;19.040;2022-12-20T09:45:47;29.58;;;22.52;;
57730;SDS011;43570;47.476;19.040;2022-12-20T09:48:24;28.92;;;22.00;;
57730;SDS011;43570;47.476;19.040;2022-12-20T09:54:03;28.00;;;21.30;;
57730;SDS011;43570;47.476;19.040;2022-12-20T09:56:46;27.48;;;21.75;;
57730;SDS011;43570;47.476;19.040;2022-12-20T09:59:20;31.05;;;21.58;;
57730;SDS011;43570;47.476;19.040;2022-12-20T10:01:48;27.40;;;21.12;;
57730;SDS011;43570;47.476;19.040;2022-12-20T10:04:19;28.02;;;21.40;;
57730;SDS011;43570;47.476;19.040;2022-12-20T10:09:35;30.05;;;22.02;;
57730;SDS011;43570;47.476;19.040;2022-12-20T10:23:13;25.65;;;20.95;;
57730;SDS011;43570;47.476;19.040;2022-12-20T10:25:48;29.23;;;21.25;;
57730;SDS011;43570;47.476;19.040;2022-12-20T10:28:15;29.12;;;21.15;;
57730;SDS011;43570;47.476;19.040;2022-12-20T10:30:41;27.73;;;21.58;;
57730;SDS011;43570;47.476;19.040;2022-12-20T10:33:10;25.70;;;21.08;;
57730;SDS011;43570;47.476;19.040;2022-12-20T10:35:44;25.65;;;20.35;;
57730;SDS011;43570;47.476;19.040;2022-12-20T10:38:10;27.20;;;19.48;;
57730;SDS011;43570;47.476;19.040;2022-12-20T10:40:41;28.50;;;21.05;;
57730;SDS011;43570;47.476;19.040;2022-12-20T10:43:15;28.85;;;21.30;;
57730;SDS011;43570;47.476;19.040;2022-12-20T10:45:42;27.27;;;21.40;;
57730;SDS011;43570;47.476;19.040;2022-12-20T10:51:01;27.48;;;21.27;;
57730;SDS011;43570;47.476;19.040;2022-12-20T10:53:29;30.02;;;22.17;;
57730;SDS011;43570;47.476;19.040;2022-12-20T10:56:14;27.55;;;21.67;;
57730;SDS011;43570;47.476;19.040;2022-12-20T10:58:41;28.77;;;21.58;;
57730;SDS011;43570;47.476;19.040;2022-12-20T11:01:11;27.15;;;22.00;;
57730;SDS011;43570;47.476;19.040;2022-12-20T11:03:53;32.05;;;22.70;;
57730;SDS011;43570;47.476;19.040;2022-12-20T11:06:44;27.77;;;21.58;;
57730;SDS011;43570;47.476;19.040;2022-12-20T11:09:20;27.58;;;21.70;;
57730;SDS011;43570;47.476;19.040;2022-12-20T11:14:49;26.27;;;19.92;;
57730;SDS011;43570;47.476;19.040;2022-12-20T11:17:34;30.52;;;22.17;;
57730;SDS011;43570;47.476;19.040;2022-12-20T11:23:04;29.30;;;20.80;;
57730;SDS011;43570;47.476;19.040;2022-12-20T11:26:00;28.08;;;21.65;;
57730;SDS011;43570;47.476;19.040;2022-12-20T11:28:54;26.62;;;19.85;;
57730;SDS011;43570;47.476;19.040;2022-12-20T11:37:26;28.52;;;21.12;;
57730;SDS011;43570;47.476;19.040;2022-12-20T11:39:29;31.12;;;21.25;;
57730;SDS011;43570;47.476;19.040;2022-12-20T11:42:02;26.33;;;20.58;;
57730;SDS011;43570;47.476;19.040;2022-12-20T11:53:31;28.52;;;20.80;;
57730;SDS011;43570;47.476;19.040;2022-12-20T11:56:20;26.77;;;20.45;;
57730;SDS011;43570;47.476;19.040;2022-12-20T11:58:51;29.45;;;22.27;;
57730;SDS011;43570;47.476;19.040;2022-12-20T12:01:25;29.20;;;22.85;;
57730;SDS011;43570;47.476;19.040;2022-12-20T12:06:35;24.50;;;19.58;;
57730;SDS011;43570;47.476;19.040;2022-12-20T12:11:48;26.75;;;20.10;;
57730;SDS011;43570;47.476;19.040;2022-12-20T12:14:27;25.15;;;20.90;;
57730;SDS011;43570;47.476;19.040;2022-12-20T12:16:53;28.02;;;20.73;;
57730;SDS011;43570;47.476;19.040;2022-12-20T12:19:22;25.73;;;21.05;;
57730;SDS011;43570;47.476;19.040;2022-12-20T12:22:00;29.67;;;22.90;;
57730;SDS011;43570;47.476;19.040;2022-12-20T12:24:48;24.58;;;20.20;;
57730;SDS011;43570;47.476;19.040;2022-12-20T12:27:23;25.50;;;20.25;;
57730;SDS011;43570;47.476;19.040;2022-12-20T12:29:51;28.38;;;23.05;;
57730;SDS011;43570;47.476;19.040;2022-12-20T12:47:00;32.80;;;25.00;;
57730;SDS011;43570;47.476;19.040;2022-12-20T12:49:27;27.77;;;22.10;;
57730;SDS011;43570;47.476;19.040;2022-12-20T12:51:55;30.35;;;22.37;;
57730;SDS011;43570;47.476;19.040;2022-12-20T12:54:55;28.67;;;22.42;;
57730;SDS011;43570;47.476;19.040;2022-12-20T12:57:16;31.08;;;23.05;;
57730;SDS011;43570;47.476;19.040;2022-12-20T13:07:28;28.58;;;22.77;;
57730;SDS011;43570;47.476;19.040;2022-12-20T13:09:57;31.58;;;23.17;;
57730;SDS011;43570;47.476;19.040;2022-12-20T13:15:00;31.37;;;22.87;;
57730;SDS011;43570;47.476;19.040;2022-12-20T13:19:52;29.37;;;22.70;;
57730;SDS011;43570;47.476;19.040;2022-12-20T13:22:20;32.60;;;22.90;;
57730;SDS011;43570;47.476;19.040;2022-12-20T13:25:00;30.05;;;22.33;;
57730;SDS011;43570;47.476;19.040;2022-12-20T13:27:37;33.40;;;24.75;;
57730;SDS011;43570;47.476;19.040;2022-12-20T13:37:57;30.73;;;23.02;;
57730;SDS011;43570;47.476;19.040;2022-12-20T13:45:37;33.33;;;24.52;;
57730;SDS011;43570;47.476;19.040;2022-12-20T13:48:03;31.48;;;22.92;;
57730;SDS011;43570;47.476;19.040;2022-12-20T13:50:32;30.48;;;23.05;;
57730;SDS011;43570;47.476;19.040;2022-12-20T13:53:01;32.95;;;24.55;;
57730;SDS011;43570;47.476;19.040;2022-12-20T13:55:31;30.35;;;22.70;;
57730;SDS011;43570;47.476;19.040;2022-12-20T13:57:57;34.65;;;23.95;;
57730;SDS011;43570;47.476;19.040;2022-12-20T14:00:28;31.30;;;24.20;;
57730;SDS011;43570;47.476;19.040;2022-12-20T14:02:53;34.33;;;23.45;;
57730;SDS011;43570;47.476;19.040;2022-12-20T14:07:50;31.52;;;23.17;;
57730;SDS011;43570;47.476;19.040;2022-12-20T14:10:30;32.47;;;23.85;;
57730;SDS011;43570;47.476;19.040;2022-12-20T14:12:56;33.42;;;23.75;;
57730;SDS011;43570;47.476;19.040;2022-12-20T14:17:47;32.15;;;23.70;;
57730;SDS011;43570;47.476;19.040;2022-12-20T14:20:14;30.20;;;23.45;;
57730;SDS011;43570;47.476;19.040;2022-12-20T14:22:44;36.15;;;24.23;;
57730;SDS011;43570;47.476;19.040;2022-12-20T14:25:15;32.75;;;23.30;;
57730;SDS011;43570;47.476;19.040;2022-12-20T14:27:42;34.38;;;24.40;;
57730;SDS011;43570;47.476;19.040;2022-12-20T14:30:28;30.58;;;23.33;;
57730;SDS011;43570;47.476;19.040;2022-12-20T14:32:56;32.63;;;22.92;;
57730;SDS011;43570;47.476;19.040;2022-12-20T14:35:22;35.97;;;24.17;;
57730;SDS011;43570;47.476;19.040;2022-12-20T14:37:52;31.42;;;22.98;;
57730;SDS011;43570;47.476;19.040;2022-12-20T14:40:22;33.13;;;24.30;;
57730;SDS011;43570;47.476;19.040;2022-12-20T14:42:47;33.13;;;24.10;;
57730;SDS011;43570;47.476;19.040;2022-12-20T14:47:47;35.95;;;23.65;;
57730;SDS011;43570;47.476;19.040;2022-12-20T14:50:32;31.73;;;23.42;;
57730;SDS011;43570;47.476;19.040;2022-12-20T14:52:59;35.40;;;23.77;;
57730;SDS011;43570;47.476;19.040;2022-12-20T14:55:32;33.72;;;24.02;;
57730;SDS011;43570;47.476;19.040;2022-12-20T14:58:00;34.63;;;23.98;;
57730;SDS011;43570;47.476;19.040;2022-12-20T15:00:27;35.75;;;25.70;;
57730;SDS011;43570;47.476;19.040;2022-12-20T15:11:11;38.05;;;27.42;;
57730;SDS011;43570;47.476;19.040;2022-12-20T15:13:42;37.65;;;28.75;;
57730;SDS011;43570;47.476;19.040;2022-12-20T15:16:18;42.60;;;29.23;;
57730;SDS011;43570;47.476;19.040;2022-12-20T15:18:45;40.17;;;28.58;;
57730;SDS011;43570;47.476;19.040;2022-12-20T15:23:39;37.95;;;29.87;;
57730;SDS011;43570;47.476;19.040;2022-12-20T15:26:12;42.90;;;31.27;;
57730;SDS011;43570;47.476;19.040;2022-12-20T15:28:39;41.10;;;31.60;;
57730;SDS011;43570;47.476;19.040;2022-12-20T15:31:04;41.47;;;31.20;;
57730;SDS011;43570;47.476;19.040;2022-12-20T15:33:30;42.17;;;30.80;;
57730;SDS011;43570;47.476;19.040;2022-12-20T15:35:57;42.30;;;31.40;;
57730;SDS011;43570;47.476;19.040;2022-12-20T15:38:24;41.08;;;31.05;;
57730;SDS011;43570;47.476;19.040;2022-12-20T15:40:51;45.88;;;32.90;;
57730;SDS011;43570;47.476;19.040;2022-12-20T15:43:19;44.38;;;33.00;;
57730;SDS011;43570;47.476;19.040;2022-12-20T15:45:47;47.58;;;34.95;;
57730;SDS011;43570;47.476;19.040;2022-12-20T15:48:14;48.97;;;34.63;;
57730;SDS011;43570;47.476;19.040;2022-12-20T15:50:52;42.55;;;33.83;;
57730;SDS011;43570;47.476;19.040;2022-12-20T15:53:23;42.95;;;32.75;;
57730;SDS011;43570;47.476;19.040;2022-12-20T15:55:51;46.03;;;34.05;;
57730;SDS011;43570;47.476;19.040;2022-12-20T15:58:18;47.72;;;34.10;;
57730;SDS011;43570;47.476;19.040;2022-12-20T16:00:44;47.20;;;34.05;;
57730;SDS011;43570;47.476;19.040;2022-12-20T16:03:11;47.95;;;34.63;;
57730;SDS011;43570;47.476;19.040;2022-12-20T16:05:39;46.35;;;32.75;;
57730;SDS011;43570;47.476;19.040;2022-12-20T16:08:04;43.15;;;32.60;;
57730;SDS011;43570;47.476;19.040;2022-12-20T16:10:30;44.42;;;34.00;;
57730;SDS011;43570;47.476;19.040;2022-12-20T16:12:55;47.30;;;32.55;;
57730;SDS011;43570;47.476;19.040;2022-12-20T16:15:21;45.28;;;32.92;;
57730;SDS011;43570;47.476;19.040;2022-12-20T16:17:47;43.38;;;32.92;;
57730;SDS011;43570;47.476;19.040;2022-12-20T16:20:12;43.58;;;32.65;;